Time;durP1;ratioP1;P1;durP2;ratioP2;P2;SDS_P1;SDS_P2;PMS_P1;PMS_P2;Temp;Humidity;BMP_temperature;BMP_pressure;BME280_temperature;BME280_humidity;BME280_pressure;Samples;Min_cycle;Max_cycle;Signal;HPM_P1;HPM_P2
2024/01/17 00:01:59;;;;;;;21.58;8.93;;;2.40;99.90;;;;;;4988596;28;20126;-76
2024/01/17 00:04:27;;;;;;;34.43;10.07;;;;;;;;;;4982761;28;20507;-76
2024/01/17 00:06:54;;;;;;;23.63;9.55;;;;;;;;;;4987036;28;20462;-76
2024/01/17 00:09:20;;;;;;;20.10;9.00;;;;;;;;;;4988459;28;20026;-76
2024/01/17 00:11:46;;;;;;;20.00;8.48;;;;;;;;;;4986248;28;20672;-77
2024/01/17 00:14:11;;;;;;;37.15;9.88;;;2.70;99.90;;;;;;4984771;28;20042;-77
2024/01/17 00:16:37;;;;;;;24.05;10.73;;;2.50;99.90;;;;;;4987335;28;20447;-77
2024/01/17 00:19:03;;;;;;;22.00;9.75;;;2.60;99.90;;;;;;4987702;28;20487;-77
2024/01/17 00:21:29;;;;;;;23.02;9.52;;;;;;;;;;4990950;28;20120;-76
2024/01/17 00:23:55;;;;;;;27.30;11.50;;;;;;;;;;4988719;28;20026;-76
2024/01/17 00:26:21;;;;;;;25.17;9.35;;;;;;;;;;4989168;28;20072;-76
2024/01/17 00:28:47;;;;;;;19.60;7.70;;;;;;;;;;4987830;28;20447;-77
2024/01/17 00:31:13;;;;;;;26.02;10.10;;;;;;;;;;4981960;28;20050;-77
2024/01/17 00:33:39;;;;;;;19.85;7.93;;;;;;;;;;4984555;28;20042;-78
2024/01/17 00:36:05;;;;;;;12.60;8.18;;;;;;;;;;4984255;28;20081;-76
2024/01/17 00:38:31;;;;;;;28.83;8.48;;;;;;;;;;4990174;28;20477;-77
2024/01/17 00:40:57;;;;;;;19.73;9.85;;;;;;;;;;4992581;28;20129;-76
2024/01/17 00:43:23;;;;;;;20.00;8.18;;;3.10;99.90;;;;;;4984250;28;20058;-77
2024/01/17 00:45:49;;;;;;;14.13;8.35;;;;;;;;;;4984032;28;20053;-76
2024/01/17 00:48:15;;;;;;;20.77;8.82;;;;;;;;;;4986613;28;20133;-77
2024/01/17 00:50:41;;;;;;;17.65;9.02;;;3.00;99.90;;;;;;4987693;28;20030;-77
2024/01/17 00:53:08;;;;;;;27.27;8.43;;;;;;;;;;4986511;28;20518;-76
2024/01/17 00:55:34;;;;;;;15.70;7.63;;;;;;;;;;4990757;28;20395;-77
2024/01/17 00:57:59;;;;;;;16.75;8.30;;;3.20;99.90;;;;;;4991531;28;22061;-78
2024/01/17 01:00:25;;;;;;;16.15;6.22;;;;;;;;;;4991760;28;20022;-76
2024/01/17 01:02:51;;;;;;;19.77;7.10;;;3.20;99.90;;;;;;4987852;28;20058;-77
2024/01/17 01:05:17;;;;;;;18.88;9.68;;;3.20;99.90;;;;;;4987372;28;20022;-77
2024/01/17 01:07:43;;;;;;;16.50;7.10;;;;;;;;;;4999591;28;20041;-77
2024/01/17 01:10:09;;;;;;;13.95;6.57;;;;;;;;;;4998850;28;20394;-77
2024/01/17 01:12:35;;;;;;;14.45;7.07;;;3.70;99.90;;;;;;4991999;28;20435;-77
2024/01/17 01:15:01;;;;;;;16.92;5.80;;;3.40;99.90;;;;;;4985929;28;20015;-77
2024/01/17 01:17:27;;;;;;;14.80;5.45;;;3.40;99.90;;;;;;4987611;28;20060;-77
2024/01/17 01:19:55;;;;;;;17.42;6.35;;;3.40;99.90;;;;;;4986523;28;20487;-78
2024/01/17 01:22:21;;;;;;;13.63;6.50;;;3.50;99.90;;;;;;4997278;28;20035;-78
2024/01/17 01:24:47;;;;;;;16.75;6.70;;;;;;;;;;4981801;28;20483;-77
2024/01/17 01:27:13;;;;;;;14.95;6.32;;;;;;;;;;4985904;28;20426;-78
2024/01/17 01:29:39;;;;;;;19.80;7.78;;;;;;;;;;4987145;28;20037;-76
2024/01/17 01:32:05;;;;;;;18.05;9.65;;;;;;;;;;4987431;28;20485;-77
2024/01/17 01:34:31;;;;;;;16.25;6.68;;;;;;;;;;4980387;28;20034;-76
2024/01/17 01:36:57;;;;;;;15.73;6.03;;;;;;;;;;4990602;28;20018;-77
2024/01/17 01:39:23;;;;;;;22.13;8.63;;;;;;;;;;4998989;28;20495;-77
2024/01/17 01:41:49;;;;;;;15.32;7.90;;;;;;;;;;4986383;28;20113;-78
2024/01/17 01:44:15;;;;;;;13.95;6.22;;;;;;;;;;4986963;28;20030;-78
2024/01/17 01:46:45;;;;;;;19.92;7.90;;;3.40;99.90;;;;;;4987836;28;20030;-77
2024/01/17 01:49:12;;;;;;;21.30;8.50;;;3.30;99.90;;;;;;4985854;28;20023;-76
2024/01/17 01:51:39;;;;;;;25.25;9.93;;;;;;;;;;4986262;28;20046;-77
2024/01/17 01:54:06;;;;;;;23.08;9.73;;;3.30;99.90;;;;;;4985462;28;20019;-78
2024/01/17 01:56:35;;;;;;;11.70;7.55;;;3.30;99.90;;;;;;4984228;28;20065;-77
2024/01/17 01:59:01;;;;;;;13.45;6.38;;;3.20;99.90;;;;;;4986798;28;20117;-77
2024/01/17 02:01:29;;;;;;;27.53;10.47;;;3.20;99.90;;;;;;4987133;28;20449;-77
2024/01/17 02:03:56;;;;;;;10.52;5.72;;;3.70;99.90;;;;;;4982015;28;20118;-77
2024/01/17 02:06:23;;;;;;;14.38;8.88;;;3.20;99.90;;;;;;4984552;28;20169;-77
2024/01/17 02:08:52;;;;;;;14.27;6.40;;;;;;;;;;4988216;28;20238;-76
2024/01/17 02:11:19;;;;;;;18.20;8.88;;;3.40;99.90;;;;;;4985908;28;20499;-77
2024/01/17 02:13:45;;;;;;;28.60;7.13;;;;;;;;;;4994575;28;20027;-77
2024/01/17 02:16:13;;;;;;;14.88;8.13;;;3.20;99.90;;;;;;4991237;28;20557;-78
2024/01/17 02:18:39;;;;;;;27.00;7.97;;;;;;;;;;4985117;28;20019;-77
2024/01/17 02:21:05;;;;;;;18.02;8.50;;;3.40;99.90;;;;;;4990731;28;20587;-77
2024/01/17 02:23:31;;;;;;;21.17;8.35;;;;;;;;;;4984228;28;21311;-77
2024/01/17 02:25:58;;;;;;;26.70;8.48;;;3.30;99.90;;;;;;4986083;28;20113;-77
2024/01/17 02:28:28;;;;;;;20.77;9.85;;;3.40;99.90;;;;;;4989389;28;20430;-77
2024/01/17 02:30:54;;;;;;;16.92;8.40;;;3.60;99.90;;;;;;4990692;28;20555;-78
2024/01/17 02:33:20;;;;;;;16.55;7.97;;;;;;;;;;4986892;28;20058;-77
2024/01/17 02:35:46;;;;;;;19.00;7.88;;;;;;;;;;4985826;28;20471;-77
2024/01/17 02:38:12;;;;;;;31.83;8.52;;;;;;;;;;4989477;28;20077;-77
2024/01/17 02:40:38;;;;;;;18.10;6.80;;;3.70;99.90;;;;;;4989665;28;20050;-77
2024/01/17 02:43:04;;;;;;;24.33;7.75;;;;;;;;;;4988960;28;20077;-78
2024/01/17 02:45:31;;;;;;;22.13;7.72;;;3.40;99.90;;;;;;4983622;28;20447;-77
2024/01/17 02:47:57;;;;;;;17.17;7.22;;;;;;;;;;4989881;28;20032;-78
2024/01/17 02:50:23;;;;;;;27.45;7.45;;;;;;;;;;4995776;28;20041;-77
2024/01/17 02:52:49;;;;;;;12.07;7.10;;;;;;;;;;4995217;28;20038;-78
2024/01/17 02:55:18;;;;;;;20.50;7.43;;;4.40;99.90;;;;;;4988485;28;20065;-77
2024/01/17 02:57:44;;;;;;;19.33;9.50;;;;;;;;;;4989738;28;20035;-77
2024/01/17 03:00:11;;;;;;;19.60;9.68;;;3.00;99.90;;;;;;4990379;28;20022;-77
2024/01/17 03:02:37;;;;;;;18.95;7.95;;;;;;;;;;4989003;28;20042;-78
2024/01/17 03:05:03;;;;;;;31.58;10.45;;;;;;;;;;4982434;28;20034;-77
2024/01/17 03:07:30;;;;;;;21.30;8.52;;;3.50;99.90;;;;;;4996382;28;20406;-77
2024/01/17 03:09:56;;;;;;;22.30;9.45;;;;;;;;;;4993557;28;20018;-75
2024/01/17 03:12:21;;;;;;;20.63;8.82;;;3.40;99.90;;;;;;5007085;28;20445;-78
2024/01/17 03:14:47;;;;;;;24.10;9.38;;;;;;;;;;4989938;28;20052;-76
2024/01/17 03:17:13;;;;;;;20.55;9.02;;;;;;;;;;4995226;28;20391;-78
2024/01/17 03:19:40;;;;;;;23.65;9.40;;;;;;;;;;4970765;28;20514;-77
2024/01/17 03:22:05;;;;;;;21.60;10.13;;;3.70;99.90;;;;;;4990393;28;20029;-77
2024/01/17 03:24:31;;;;;;;22.23;7.95;;;;;;;;;;4982992;28;20018;-77
2024/01/17 03:26:57;;;;;;;25.65;8.20;;;;;;;;;;4988984;28;20034;-78
2024/01/17 03:29:24;;;;;;;21.27;8.88;;;;;;;;;;4989356;28;20391;-78
2024/01/17 03:31:49;;;;;;;26.63;10.05;;;3.70;99.90;;;;;;4987808;28;20153;-76
2024/01/17 03:34:15;;;;;;;21.30;8.55;;;;;;;;;;4987052;28;20456;-77
2024/01/17 03:36:41;;;;;;;15.73;8.27;;;;;;;;;;4987542;28;20030;-76
2024/01/17 03:39:07;;;;;;;22.33;9.88;;;3.80;99.90;;;;;;4990564;28;20014;-77
2024/01/17 03:41:33;;;;;;;16.40;9.70;;;;;;;;;;4987712;28;20030;-78
2024/01/17 03:43:59;;;;;;;20.13;7.80;;;;;;;;;;4990324;28;20025;-76
2024/01/17 03:46:25;;;;;;;19.17;9.55;;;;;;;;;;4990497;28;20494;-78
2024/01/17 03:48:51;;;;;;;17.17;8.85;;;;;;;;;;5002674;28;20122;-77
2024/01/17 03:51:17;;;;;;;23.85;8.13;;;;;;;;;;4971047;28;20519;-77
2024/01/17 03:53:43;;;;;;;22.85;9.15;;;;;;;;;;4985323;28;20038;-77
2024/01/17 03:56:09;;;;;;;23.42;8.23;;;;;;;;;;4984980;28;20018;-78
2024/01/17 03:58:35;;;;;;;30.17;12.10;;;;;;;;;;4989526;28;20072;-77
2024/01/17 04:01:01;;;;;;;27.05;10.27;;;;;;;;;;4988730;28;20023;-77
2024/01/17 04:03:27;;;;;;;18.58;10.63;;;4.00;99.90;;;;;;4984259;28;20031;-77
2024/01/17 04:05:53;;;;;;;19.83;9.70;;;;;;;;;;4984769;28;20034;-77
2024/01/17 04:08:19;;;;;;;18.88;7.78;;;;;;;;;;4987874;28;20034;-77
2024/01/17 04:10:45;;;;;;;14.45;7.35;;;;;;;;;;4993576;28;20046;-77
2024/01/17 04:13:11;;;;;;;10.45;4.65;;;;;;;;;;5004037;28;20022;-78
2024/01/17 04:15:37;;;;;;;15.63;5.88;;;;;;;;;;4982787;28;20025;-77
2024/01/17 04:18:03;;;;;;;6.05;3.58;;;4.70;99.90;;;;;;4987995;28;20041;-77
2024/01/17 04:20:29;;;;;;;10.15;5.88;;;;;;;;;;4988194;28;20081;-78
2024/01/17 04:22:55;;;;;;;5.68;3.15;;;;;;;;;;4991143;28;20030;-79
2024/01/17 04:25:21;;;;;;;3.45;2.20;;;;;;;;;;4980720;28;20105;-78
2024/01/17 04:27:47;;;;;;;11.23;4.60;;;5.80;99.90;;;;;;4987617;28;20038;-77
2024/01/17 04:30:14;;;;;;;10.25;4.43;;;;;;;;;;4988592;28;20026;-77
2024/01/17 04:32:41;;;;;;;20.45;8.43;;;;;;;;;;4992320;28;20042;-77
2024/01/17 04:35:07;;;;;;;4.20;2.10;;;;;;;;;;4983660;28;20053;-77
2024/01/17 04:37:33;;;;;;;10.68;2.85;;;6.50;99.90;;;;;;4987633;28;20052;-77
2024/01/17 04:39:59;;;;;;;4.53;2.47;;;;;;;;;;4987933;28;20046;-78
2024/01/17 04:42:25;;;;;;;3.90;3.15;;;;;;;;;;4987578;28;20360;-78
2024/01/17 04:44:51;;;;;;;0.80;0.80;;;;;;;;;;4984521;28;20637;-77
2024/01/17 04:47:17;;;;;;;1.10;0.80;;;;;;;;;;4984853;28;20113;-77
2024/01/17 04:49:43;;;;;;;1.85;1.65;;;;;;;;;;4988659;28;20114;-76
2024/01/17 04:52:09;;;;;;;1.05;0.90;;;8.70;99.90;;;;;;4987776;28;20469;-76
2024/01/17 04:54:35;;;;;;;0.57;0.52;;;8.50;99.90;;;;;;4984065;28;20023;-77
2024/01/17 04:57:01;;;;;;;0.50;0.50;;;;;;;;;;4994220;28;21497;-77
2024/01/17 04:59:27;;;;;;;2.67;2.42;;;8.70;99.90;;;;;;4987575;28;20030;-78
2024/01/17 05:01:53;;;;;;;0.55;0.50;;;;;;;;;;4986492;28;20104;-78
2024/01/17 05:04:19;;;;;;;2.47;0.73;;;;;;;;;;4981410;28;20175;-77
2024/01/17 05:06:45;;;;;;;3.45;0.70;;;;;;;;;;4986299;28;20513;-78
2024/01/17 05:09:11;;;;;;;0.60;0.60;;;;;;;;;;4988437;28;20030;-78
2024/01/17 05:11:37;;;;;;;6.18;0.93;;;9.10;99.90;;;;;;4986711;28;20070;-77
2024/01/17 05:14:03;;;;;;;1.60;0.95;;;;;;;;;;4994072;28;20023;-77
2024/01/17 05:16:29;;;;;;;0.60;0.60;;;;;;;;;;4983679;28;20060;-78
2024/01/17 05:18:55;;;;;;;0.98;0.60;;;8.90;99.90;;;;;;4987743;28;20060;-77
2024/01/17 05:21:21;;;;;;;1.30;0.80;;;;;;;;;;4990542;28;20030;-77
2024/01/17 05:23:47;;;;;;;1.45;0.50;;;;;;;;;;4988712;28;20029;-77
2024/01/17 05:26:13;;;;;;;0.90;0.90;;;8.90;99.90;;;;;;4987449;28;20117;-76
2024/01/17 05:28:39;;;;;;;5.57;2.17;;;;;;;;;;4987004;28;20026;-78
2024/01/17 05:31:05;;;;;;;0.85;0.63;;;;;;;;;;4986055;28;20095;-78
2024/01/17 05:33:31;;;;;;;2.47;0.73;;;9.10;99.90;;;;;;4990222;28;20053;-77
2024/01/17 05:35:57;;;;;;;0.70;0.60;;;;;;;;;;4982855;28;20019;-78
2024/01/17 05:38:23;;;;;;;0.60;0.60;;;;;;;;;;4987223;28;20030;-78
2024/01/17 05:40:49;;;;;;;1.05;0.63;;;;;;;;;;4994722;28;20056;-77
2024/01/17 05:43:15;;;;;;;0.77;0.70;;;;;;;;;;4984371;28;20018;-78
2024/01/17 05:45:41;;;;;;;2.08;0.80;;;;;;;;;;4984065;28;20039;-79
2024/01/17 05:48:07;;;;;;;0.60;0.60;;;;;;;;;;4986208;28;20019;-78
2024/01/17 05:50:33;;;;;;;0.40;0.40;;;;;;;;;;4986384;28;20022;-79
2024/01/17 05:52:59;;;;;;;0.93;0.60;;;;;;;;;;4986522;28;20084;-78
2024/01/17 05:55:26;;;;;;;0.98;0.90;;;;;;;;;;4979090;28;20033;-78
2024/01/17 05:57:53;;;;;;;0.63;0.55;;;;;;;;;;4986510;28;20030;-78
2024/01/17 06:00:20;;;;;;;0.82;0.50;;;;;;;;;;4984876;28;20030;-78
2024/01/17 06:02:46;;;;;;;0.57;0.57;;;;;;;;;;4986557;28;20129;-78
2024/01/17 06:05:12;;;;;;;0.63;0.50;;;;;;;;;;4980997;28;20376;-78
2024/01/17 06:07:42;;;;;;;0.75;0.68;;;9.50;99.90;;;;;;4989636;28;20029;-78
2024/01/17 06:10:11;;;;;;;1.05;0.80;;;9.70;99.90;;;;;;4990637;28;20022;-78
2024/01/17 06:12:37;;;;;;;1.85;0.60;;;;;;;;;;4992783;28;20034;-77
2024/01/17 06:15:03;;;;;;;0.80;0.47;;;;;;;;;;4982868;28;20513;-77
2024/01/17 06:17:29;;;;;;;0.57;0.57;;;;;;;;;;4977029;28;20431;-77
2024/01/17 06:19:55;;;;;;;1.65;0.75;;;;;;;;;;4990320;28;20411;-77
2024/01/17 06:22:21;;;;;;;0.60;0.60;;;;;;;;;;4985454;28;20033;-77
2024/01/17 06:24:47;;;;;;;0.50;0.50;;;;;;;;;;4980402;28;20034;-78
2024/01/17 06:27:14;;;;;;;5.03;0.93;;;;;;;;;;4984785;28;20403;-78
2024/01/17 06:29:43;;;;;;;0.60;0.60;;;8.20;99.90;;;;;;4984542;28;20027;-78
2024/01/17 06:32:10;;;;;;;0.50;0.50;;;9.30;99.90;;;;;;4986724;28;20544;-78
2024/01/17 06:34:36;;;;;;;0.73;0.73;;;;;;;;;;4980114;28;20029;-77
2024/01/17 06:37:03;;;;;;;0.50;0.50;;;9.30;99.90;;;;;;4981203;28;20034;-77
2024/01/17 06:39:30;;;;;;;1.80;1.70;;;9.50;99.90;;;;;;4982005;28;20038;-76
2024/01/17 06:41:56;;;;;;;0.40;0.40;;;;;;;;;;4980890;28;20073;-79
2024/01/17 06:44:22;;;;;;;0.40;0.40;;;;;;;;;;4981641;28;20266;-80
2024/01/17 06:46:48;;;;;;;1.38;0.50;;;;;;;;;;4982678;28;20466;-82
2024/01/17 06:49:14;;;;;;;0.55;0.55;;;;;;;;;;4989778;28;20253;-80
2024/01/17 06:51:40;;;;;;;4.72;1.55;;;;;;;;;;4993379;28;20265;-79
2024/01/17 06:54:09;;;;;;;11.63;3.25;;;;;;;;;;4979113;28;20248;-80
2024/01/17 06:56:36;;;;;;;1.60;1.17;;;;;;;;;;4987947;28;20487;-80
2024/01/17 06:59:02;;;;;;;1.17;0.98;;;;;;;;;;4987702;28;20058;-80
2024/01/17 07:01:28;;;;;;;0.30;0.30;;;;;;;;;;4987653;28;20076;-81
2024/01/17 07:03:54;;;;;;;1.45;0.95;;;;;;;;;;4987927;28;20034;-80
2024/01/17 07:06:20;;;;;;;1.38;1.27;;;9.70;99.90;;;;;;4988141;28;20399;-80
2024/01/17 07:08:46;;;;;;;1.10;0.80;;;;;;;;;;4987836;28;20054;-80
2024/01/17 07:11:13;;;;;;;4.47;0.85;;;;;;;;;;4988339;28;20093;-80
2024/01/17 07:13:39;;;;;;;0.80;0.60;;;;;;;;;;5001835;28;20587;-80
2024/01/17 07:16:05;;;;;;;0.75;0.50;;;9.60;99.90;;;;;;4993119;28;20018;-79
2024/01/17 07:18:33;;;;;;;0.60;0.60;;;;;;;;;;4990764;28;20042;-79
2024/01/17 07:20:59;;;;;;;0.40;0.40;;;;;;;;;;4990992;28;20085;-79
2024/01/17 07:23:25;;;;;;;0.77;0.77;;;;;;;;;;4990771;28;20034;-78
2024/01/17 07:25:51;;;;;;;0.95;0.80;;;;;;;;;;4990504;28;20022;-77
2024/01/17 07:28:19;;;;;;;4.93;0.68;;;;;;;;;;4990130;28;20536;-76
2024/01/17 07:30:45;;;;;;;0.60;0.60;;;;;;;;;;4989358;28;20027;-78
2024/01/17 07:33:11;;;;;;;0.73;0.50;;;;;;;;;;5001148;28;20097;-80
2024/01/17 07:35:37;;;;;;;0.55;0.50;;;;;;;;;;4990620;28;20047;-78
2024/01/17 07:38:03;;;;;;;0.50;0.50;;;;;;;;;;4989031;28;20030;-78
2024/01/17 07:40:29;;;;;;;0.75;0.50;;;;;;;;;;4992321;28;20536;-77
2024/01/17 07:42:55;;;;;;;2.47;0.82;;;;;;;;;;4990831;28;20101;-78
2024/01/17 07:45:21;;;;;;;0.60;0.60;;;;;;;;;;4982694;28;20068;-78
2024/01/17 07:47:47;;;;;;;1.23;0.65;;;;;;;;;;4988464;28;20022;-79
2024/01/17 07:50:13;;;;;;;10.35;0.68;;;9.80;99.90;;;;;;4990118;28;20026;-78
2024/01/17 07:52:40;;;;;;;1.95;0.75;;;;;;;;;;4989859;28;20034;-75
2024/01/17 07:55:06;;;;;;;0.50;0.50;;;9.80;99.90;;;;;;4990584;28;20109;-76
2024/01/17 07:57:32;;;;;;;2.42;0.70;;;;;;;;;;4990381;28;20034;-76
2024/01/17 07:59:58;;;;;;;0.40;0.40;;;;;;;;;;4990712;28;20682;-76
2024/01/17 08:02:24;;;;;;;1.05;0.95;;;;;;;;;;4989893;28;20034;-77
2024/01/17 08:04:52;;;;;;;0.43;0.43;;;;;;;;;;4990332;28;20403;-75
2024/01/17 08:07:24;;;;;;;0.60;0.60;;;;;;;;;;4989138;28;20035;-75
2024/01/17 08:09:50;;;;;;;1.15;1.05;;;;;;;;;;4988066;28;20089;-76
2024/01/17 08:12:16;;;;;;;3.05;1.13;;;;;;;;;;4987795;28;20057;-74
2024/01/17 08:14:42;;;;;;;14.05;1.75;;;;;;;;;;4985864;28;20423;-75
2024/01/17 08:17:08;;;;;;;0.80;0.80;;;10.10;99.90;;;;;;4980343;28;20078;-75
2024/01/17 08:19:34;;;;;;;0.70;0.70;;;;;;;;;;4990161;28;20082;-77
2024/01/17 08:22:00;;;;;;;3.20;0.90;;;;;;;;;;4989499;28;20034;-76
2024/01/17 08:24:26;;;;;;;0.85;0.50;;;;;;;;;;4989161;28;20034;-80
2024/01/17 08:26:52;;;;;;;1.23;1.00;;;;;;;;;;4984100;28;20411;-78
2024/01/17 08:29:18;;;;;;;2.15;0.77;;;;;;;;;;4989835;28;20070;-79
2024/01/17 08:31:44;;;;;;;1.92;0.60;;;;;;;;;;4970681;28;20046;-77
2024/01/17 08:34:11;;;;;;;5.18;1.27;;;;;;;;;;4988979;28;20050;-78
2024/01/17 08:36:37;;;;;;;1.67;0.97;;;;;;;;;;4989577;28;20030;-77
2024/01/17 08:39:05;;;;;;;1.05;0.55;;;;;;;;;;4987653;28;20419;-79
2024/01/17 08:41:31;;;;;;;3.33;0.65;;;;;;;;;;4986160;28;20046;-74
2024/01/17 08:43:57;;;;;;;1.92;0.88;;;;;;;;;;4990088;28;20113;-78
2024/01/17 08:46:23;;;;;;;0.88;0.82;;;;;;;;;;4989514;28;20030;-78
2024/01/17 08:48:49;;;;;;;0.95;0.73;;;;;;;;;;4988414;28;20494;-78
2024/01/17 08:51:15;;;;;;;0.70;0.70;;;;;;;;;;4982962;28;20043;-79
2024/01/17 08:53:41;;;;;;;1.23;0.82;;;;;;;;;;4982641;28;20061;-76
2024/01/17 08:56:07;;;;;;;1.88;0.98;;;;;;;;;;4990116;28;20023;-76
2024/01/17 08:58:33;;;;;;;6.53;1.58;;;;;;;;;;4992305;28;20061;-78
2024/01/17 09:01:01;;;;;;;3.60;0.80;;;;;;;;;;4989181;28;20023;-78
2024/01/17 09:03:29;;;;;;;3.67;1.65;;;;;;;;;;4988971;28;20022;-78
2024/01/17 09:05:55;;;;;;;1.58;0.82;;;;;;;;;;4989840;28;20109;-77
2024/01/17 09:08:21;;;;;;;1.17;1.08;;;;;;;;;;4988282;28;20733;-78
2024/01/17 09:10:47;;;;;;;3.60;1.25;;;;;;;;;;4988281;28;20033;-78
2024/01/17 09:13:13;;;;;;;1.90;1.20;;;;;;;;;;5000617;28;20026;-78
2024/01/17 09:15:39;;;;;;;2.85;1.00;;;;;;;;;;4989253;28;20038;-75
2024/01/17 09:18:05;;;;;;;4.35;1.17;;;;;;;;;;4989421;28;20027;-78
2024/01/17 09:20:31;;;;;;;1.15;0.88;;;;;;;;;;4989756;28;20041;-80
2024/01/17 09:22:57;;;;;;;1.38;1.17;;;;;;;;;;4987512;28;20032;-79
2024/01/17 09:25:24;;;;;;;1.60;1.20;;;;;;;;;;4997662;28;20105;-75
2024/01/17 09:27:50;;;;;;;2.78;0.75;;;;;;;;;;4988491;28;20022;-75
2024/01/17 09:30:16;;;;;;;0.60;0.60;;;;;;;;;;4988700;28;20507;-75
2024/01/17 09:32:47;;;;;;;1.50;1.30;;;;;;;;;;4988836;28;20042;-75
2024/01/17 09:35:13;;;;;;;0.60;0.60;;;;;;;;;;4988849;28;20030;-75
2024/01/17 09:37:39;;;;;;;1.27;0.77;;;;;;;;;;4987949;28;20034;-77
2024/01/17 09:40:05;;;;;;;0.50;0.50;;;;;;;;;;4988588;28;20104;-77
2024/01/17 09:42:34;;;;;;;0.73;0.65;;;13.40;90.80;;;;;;4988776;28;20510;-75
2024/01/17 09:45:01;;;;;;;0.47;0.47;;;13.40;89.50;;;;;;4991022;28;20022;-77
2024/01/17 09:47:29;;;;;;;1.02;0.70;;;13.50;89.80;;;;;;4991658;28;20042;-77
2024/01/17 09:49:55;;;;;;;1.23;0.73;;;;;;;;;;4989042;28;20026;-78
2024/01/17 09:52:22;;;;;;;0.60;0.52;;;13.70;93.70;;;;;;4988041;28;20092;-77
2024/01/17 09:54:51;;;;;;;4.00;0.60;;;13.90;88.80;;;;;;4989041;28;20030;-78
2024/01/17 09:57:24;;;;;;;1.40;0.82;;;14.20;83.60;;;;;;4988605;28;20117;-77
2024/01/17 09:59:57;;;;;;;4.82;1.45;;;14.30;84.60;;;;;;4988214;28;20103;-77
2024/01/17 10:02:24;;;;;;;0.90;0.80;;;14.30;83.80;;;;;;4988518;28;20022;-78
2024/01/17 10:04:50;;;;;;;0.80;0.70;;;;;;;;;;4988258;28;20037;-78
2024/01/17 10:07:19;;;;;;;0.70;0.50;;;;;;;;;;4988387;28;20018;-78
2024/01/17 10:09:46;;;;;;;0.70;0.65;;;;;;;;;;4987825;28;20026;-74
2024/01/17 10:12:13;;;;;;;1.67;0.98;;;14.40;80.30;;;;;;4986455;28;20553;-73
2024/01/17 10:14:40;;;;;;;1.50;1.00;;;;;;;;;;4994765;28;20060;-73
2024/01/17 10:17:06;;;;;;;0.63;0.63;;;;;;;;;;4988078;28;20093;-74
2024/01/17 10:19:33;;;;;;;0.73;0.70;;;15.20;79.50;;;;;;4987833;28;20137;-77
2024/01/17 10:22:04;;;;;;;0.50;0.50;;;;;;;;;;4987956;28;20113;-77
2024/01/17 10:24:35;;;;;;;1.98;1.10;;;16.30;75.00;;;;;;4987876;28;20101;-77
2024/01/17 10:27:04;;;;;;;1.15;1.05;;;16.90;71.10;;;;;;4988041;28;20037;-78
2024/01/17 10:29:37;;;;;;;3.25;0.98;;;17.00;82.10;;;;;;4987475;28;20483;-78
2024/01/17 10:32:03;;;;;;;2.15;0.95;;;;;;;;;;4986790;28;20187;-78
2024/01/17 10:34:32;;;;;;;1.35;1.00;;;17.00;77.80;;;;;;4983892;28;20026;-75
2024/01/17 10:36:58;;;;;;;1.40;0.90;;;17.00;75.60;;;;;;4987845;28;20030;-77
2024/01/17 10:39:28;;;;;;;2.35;0.82;;;17.10;73.00;;;;;;4977908;28;20046;-73
2024/01/17 10:41:56;;;;;;;0.50;0.50;;;17.10;67.70;;;;;;4987828;28;20030;-77
2024/01/17 10:44:22;;;;;;;0.63;0.63;;;17.50;67.40;;;;;;4987730;28;20026;-76
2024/01/17 10:46:50;;;;;;;1.75;0.70;;;17.80;66.50;;;;;;4995782;28;20053;-76
2024/01/17 10:49:17;;;;;;;0.57;0.55;;;;;;;;;;4990855;28;20029;-82
2024/01/17 10:52:03;;;;;;;2.47;0.60;;;17.60;65.70;;;;;;4991023;28;20495;-82
2024/01/17 10:54:40;;;;;;;3.72;0.55;;;17.30;65.60;;;;;;4991744;28;20118;-82
2024/01/17 10:57:09;;;;;;;0.63;0.45;;;17.00;70.40;;;;;;4991665;28;20038;-76
2024/01/17 10:59:35;;;;;;;0.75;0.45;;;;;;;;;;4997321;28;20036;-79
2024/01/17 11:02:03;;;;;;;1.48;0.73;;;16.40;68.20;;;;;;4986293;28;20053;-76
2024/01/17 11:04:29;;;;;;;;;;;16.40;68.20;;;;;;4991978;28;20038;-78
2024/01/17 11:06:57;;;;;;;2.00;0.77;;;16.50;84.70;;;;;;4990977;28;19910;-78
2024/01/17 11:09:26;;;;;;;0.55;0.50;;;16.90;68.20;;;;;;4990387;28;20466;-75
2024/01/17 11:11:52;;;;;;;0.70;0.60;;;;;;;;;;4975977;28;20034;-74
2024/01/17 11:14:19;;;;;;;2.88;0.50;;;17.10;65.10;;;;;;5012541;28;20026;-74
2024/01/17 11:16:52;;;;;;;2.65;0.80;;;;;;;;;;4992932;28;20029;-72
2024/01/17 11:19:19;;;;;;;0.70;0.50;;;16.70;67.00;;;;;;4991230;28;20038;-75
2024/01/17 11:21:45;;;;;;;1.45;0.60;;;;;;;;;;4973588;28;20084;-75
2024/01/17 11:24:27;;;;;;;0.60;0.60;;;16.10;68.30;;;;;;4991503;28;20081;-75
2024/01/17 11:27:15;;;;;;;0.43;0.43;;;15.60;68.70;;;;;;4991485;28;20027;-75
2024/01/17 11:29:44;;;;;;;1.55;0.60;;;;;;;;;;4975176;28;20034;-74
2024/01/17 11:32:10;;;;;;;1.02;0.57;;;;;;;;;;4976636;28;20039;-74
2024/01/17 11:34:36;;;;;;;1.33;0.93;;;;;;;;;;4978261;28;20597;-76
2024/01/17 11:37:02;;;;;;;0.38;0.32;;;;;;;;;;4992499;28;20073;-75
2024/01/17 11:39:28;;;;;;;2.30;0.93;;;;;;;;;;4989409;28;20046;-73
2024/01/17 11:41:54;;;;;;;0.75;0.65;;;;;;;;;;4990481;28;20053;-75
2024/01/17 11:44:22;;;;;;;0.73;0.65;;;;;;;;;;4985656;28;20037;-76
2024/01/17 11:46:51;;;;;;;0.88;0.80;;;14.70;73.20;;;;;;4990747;28;20034;-77
2024/01/17 11:49:40;;;;;;;0.50;0.50;;;14.60;73.80;;;;;;4990518;28;20022;-76
2024/01/17 11:52:31;;;;;;;1.38;0.98;;;14.50;74.30;;;;;;4988627;28;20311;-75
2024/01/17 11:54:57;;;;;;;0.55;0.47;;;;;;;;;;4990179;28;20491;-74
2024/01/17 11:57:29;;;;;;;2.80;0.77;;;;;;;;;;4988942;28;20049;-74
2024/01/17 12:00:12;;;;;;;0.68;0.60;;;14.60;75.20;;;;;;4985864;28;20034;-74
2024/01/17 12:02:43;;;;;;;2.83;0.77;;;14.60;94.00;;;;;;4989823;28;20038;-75
2024/01/17 12:05:10;;;;;;;1.92;0.70;;;14.30;75.00;;;;;;4989786;28;20022;-75
2024/01/17 12:07:39;;;;;;;0.40;0.40;;;14.70;75.00;;;;;;4990320;28;20038;-78
2024/01/17 12:10:10;;;;;;;4.25;0.57;;;14.90;93.90;;;;;;4988865;28;20037;-75
2024/01/17 12:12:42;;;;;;;0.75;0.50;;;14.60;75.00;;;;;;4997090;28;20050;-75
2024/01/17 12:15:09;;;;;;;0.40;0.40;;;14.60;93.90;;;;;;4983638;28;20053;-75
2024/01/17 12:17:39;;;;;;;0.82;0.40;;;14.60;94.00;;;;;;4989712;28;20294;-75
2024/01/17 12:20:09;;;;;;;0.35;0.35;;;14.60;75.70;;;;;;4988990;28;20467;-76
2024/01/17 12:22:38;;;;;;;0.75;0.50;;;14.60;75.50;;;;;;4989521;28;20129;-75
2024/01/17 12:25:05;;;;;;;0.57;0.57;;;;;;;;;;4982485;28;20439;-77
2024/01/17 12:27:33;;;;;;;0.50;0.50;;;14.40;76.60;;;;;;4983738;28;20022;-77
2024/01/17 12:30:05;;;;;;;0.43;0.43;;;14.20;77.60;;;;;;4991098;28;20042;-79
2024/01/17 12:32:31;;;;;;;0.40;0.40;;;;;;;;;;4980441;28;20041;-79
2024/01/17 12:34:58;;;;;;;0.50;0.50;;;;;;;;;;4986355;28;20093;-81
2024/01/17 12:37:23;;;;;;;0.40;0.40;;;13.80;88.80;;;;;;4983914;28;20038;-78
2024/01/17 12:39:49;;;;;;;0.30;0.30;;;13.80;97.00;;;;;;4989254;28;20054;-80
2024/01/17 12:42:16;;;;;;;1.73;0.43;;;;;;;;;;4990974;28;20046;-77
2024/01/17 12:44:43;;;;;;;0.50;0.50;;;;;;;;;;4988093;28;20618;-74
2024/01/17 12:47:09;;;;;;;0.50;0.50;;;;;;;;;;4989596;28;20495;-74
2024/01/17 12:49:35;;;;;;;1.30;0.43;;;;;;;;;;4985059;28;20506;-73
2024/01/17 12:52:01;;;;;;;0.30;0.30;;;;;;;;;;4989258;28;20088;-74
2024/01/17 12:54:27;;;;;;;0.30;0.30;;;;;;;;;;4987489;28;20061;-77
2024/01/17 12:56:54;;;;;;;0.30;0.30;;;;;;;;;;4989407;28;20034;-78
2024/01/17 12:59:21;;;;;;;0.45;0.45;;;;;;;;;;4987980;28;20021;-77
2024/01/17 13:01:47;;;;;;;2.08;0.75;;;;;;;;;;4985078;28;20407;-77
2024/01/17 13:04:13;;;;;;;1.77;0.80;;;13.20;97.10;;;;;;4986083;28;20558;-77
2024/01/17 13:06:48;;;;;;;1.20;0.77;;;13.30;91.90;;;;;;4989627;28;20754;-80
2024/01/17 13:09:17;;;;;;;0.45;0.45;;;13.40;91.60;;;;;;4989124;28;20022;-76
2024/01/17 13:11:53;;;;;;;1.02;0.52;;;13.50;92.20;;;;;;4988820;28;20026;-74
2024/01/17 13:14:21;;;;;;;0.40;0.35;;;13.60;91.10;;;;;;4997550;28;20038;-74
2024/01/17 13:16:47;;;;;;;0.68;0.60;;;;;;;;;;4988891;28;20026;-74
2024/01/17 13:19:16;;;;;;;0.30;0.30;;;13.60;91.10;;;;;;4981794;28;20117;-77
2024/01/17 13:21:43;;;;;;;0.40;0.40;;;13.60;92.80;;;;;;4985574;28;20041;-78
2024/01/17 13:24:10;;;;;;;0.52;0.50;;;;;;;;;;4989214;28;20443;-78
2024/01/17 13:26:36;;;;;;;2.00;0.95;;;;;;;;;;4983212;28;20089;-74
2024/01/17 13:29:04;;;;;;;0.73;0.65;;;13.00;96.80;;;;;;4987893;28;20022;-77
2024/01/17 13:31:30;;;;;;;3.13;0.68;;;;;;;;;;4998587;28;20038;-80
2024/01/17 13:33:58;;;;;;;1.95;0.80;;;;;;;;;;4988370;28;20101;-77
2024/01/17 13:36:25;;;;;;;1.05;0.70;;;;;;;;;;4990857;28;20050;-77
2024/01/17 13:38:51;;;;;;;2.85;0.70;;;;;;;;;;4987630;28;20034;-78
2024/01/17 13:41:18;;;;;;;2.22;0.73;;;;;;;;;;4988147;28;20038;-78
2024/01/17 13:43:44;;;;;;;1.00;0.65;;;;;;;;;;4988135;28;20056;-77
2024/01/17 13:46:10;;;;;;;6.78;1.08;;;;;;;;;;4984893;28;20069;-77
2024/01/17 13:48:37;;;;;;;0.50;0.50;;;;;;;;;;4986983;28;20106;-78
2024/01/17 13:51:03;;;;;;;0.60;0.60;;;;;;;;;;4985783;28;20044;-73
2024/01/17 13:53:31;;;;;;;0.60;0.60;;;;;;;;;;4988598;28;20076;-76
2024/01/17 13:55:57;;;;;;;1.52;0.93;;;12.20;99.90;;;;;;4984110;28;20492;-74
2024/01/17 13:58:24;;;;;;;0.80;0.80;;;12.00;99.90;;;;;;4987305;28;20030;-75